Time;durP1;ratioP1;P1;durP2;ratioP2;P2;SDS_P1;SDS_P2;PMS_P1;PMS_P2;Temp;Humidity;BMP_temperature;BMP_pressure;BME280_temperature;BME280_humidity;BME280_pressure;Samples;Min_cycle;Max_cycle;Signal;HPM_P1;HPM_P2
2021/09/10 00:00:58;;;;;;;4.37;4.07;;;;;;;24.84;47.05;98151.28;5034742;28;20198;-56
2021/09/10 00:03:24;;;;;;;4.20;3.90;;;;;;;24.87;46.75;98153.56;5034764;28;20194;-56
2021/09/10 00:05:51;;;;;;;4.30;4.00;;;;;;;24.82;47.21;98155.22;5034707;28;20656;-58
2021/09/10 00:08:17;;;;;;;3.73;3.50;;;;;;;24.90;46.90;98157.66;5034549;28;20210;-59
2021/09/10 00:10:44;;;;;;;4.33;4.03;;;;;;;24.89;46.69;98161.34;5034597;28;20194;-59
2021/09/10 00:13:10;;;;;;;4.20;3.90;;;;;;;24.92;46.49;98156.41;5035069;28;20186;-58
2021/09/10 00:15:37;;;;;;;4.33;4.03;;;;;;;24.89;46.68;98156.84;5034734;28;20243;-58
2021/09/10 00:18:03;;;;;;;4.40;4.10;;;;;;;24.88;46.57;98160.53;5034363;28;20237;-58
2021/09/10 00:20:30;;;;;;;4.40;4.10;;;;;;;24.89;46.62;98156.84;5034563;28;20190;-58
2021/09/10 00:22:56;;;;;;;4.27;3.97;;;;;;;24.90;46.72;98163.81;5034379;28;20186;-58
2021/09/10 00:25:23;;;;;;;4.53;4.23;;;;;;;24.91;46.59;98160.13;5034277;28;20247;-59
2021/09/10 00:27:49;;;;;;;4.27;3.97;;;;;;;24.92;46.49;98161.75;5034381;28;20194;-58
2021/09/10 00:30:16;;;;;;;4.40;4.10;;;;;;;24.91;46.62;98162.78;5032944;28;20566;-58
2021/09/10 00:32:42;;;;;;;4.13;3.90;;;;;;;24.86;46.72;98167.94;5034712;28;20195;-58
2021/09/10 00:35:10;;;;;;;3.80;3.50;;;;;;;24.84;46.60;98164.63;5033057;28;20610;-56
2021/09/10 00:37:37;;;;;;;4.90;4.50;;;;;;;24.84;46.80;98167.31;5034580;28;20209;-58
2021/09/10 00:40:05;;;;;;;4.03;3.80;;;;;;;24.84;46.83;98163.84;5034447;28;20256;-56
2021/09/10 00:42:32;;;;;;;4.30;4.00;;;;;;;24.83;46.63;98162.19;5034024;28;20683;-58
2021/09/10 00:44:58;;;;;;;4.20;3.90;;;;;;;24.83;46.75;98168.34;5033967;28;20203;-58
2021/09/10 00:47:25;;;;;;;4.30;4.00;;;;;;;24.84;46.57;98164.63;5033901;28;20190;-59
2021/09/10 00:49:52;;;;;;;4.57;4.17;;;;;;;24.81;46.71;98165.06;5033075;28;20208;-59
2021/09/10 00:52:19;;;;;;;4.13;3.83;;;;;;;24.80;46.66;98164.25;5034070;28;20660;-58
2021/09/10 00:54:45;;;;;;;4.33;4.03;;;;;;;24.82;46.87;98174.69;5033740;28;20201;-58
2021/09/10 00:57:12;;;;;;;4.40;4.10;;;;;;;24.79;46.83;98173.28;5033748;28;20213;-58
2021/09/10 00:59:38;;;;;;;4.10;3.83;;;;;;;24.79;47.12;98170.63;5033595;28;20585;-58
2021/09/10 01:02:05;;;;;;;4.17;3.87;;;;;;;24.78;46.61;98176.16;5033654;28;20194;-58
2021/09/10 01:04:33;;;;;;;4.33;4.03;;;;;;;24.77;46.84;98174.53;5032303;28;20232;-58
2021/09/10 01:07:00;;;;;;;4.33;3.93;;;;;;;24.76;46.74;98175.56;5033568;28;20194;-57
2021/09/10 01:09:27;;;;;;;4.67;4.37;;;;;;;24.71;46.80;98176.13;5033443;28;20697;-58
2021/09/10 01:12:12;;;;;;;4.70;4.40;;;;;;;24.71;46.80;98176.13;5033486;28;20177;-58
2021/09/10 01:14:56;;;;;;;4.50;4.20;;;;;;;24.73;46.90;98165.28;5033717;28;20223;-58
2021/09/10 01:17:23;;;;;;;4.40;4.10;;;;;;;24.72;46.85;98172.44;5033406;28;20665;-58
2021/09/10 01:19:49;;;;;;;4.37;4.07;;;;;;;24.74;46.70;98177.59;5032116;28;20241;-58
2021/09/10 01:22:16;;;;;;;4.40;4.10;;;;;;;24.74;46.87;98170.38;5033325;28;20201;-59
2021/09/10 01:25:04;;;;;;;4.60;4.30;;;;;;;24.72;46.94;98171.63;5033567;28;20201;-58
2021/09/10 01:27:31;;;;;;;4.40;4.10;;;;;;;24.73;46.70;98168.75;5033554;28;20665;-59
2021/09/10 01:29:58;;;;;;;4.57;4.17;;;;;;;24.70;46.78;98168.38;5033209;28;20703;-58
2021/09/10 01:32:25;;;;;;;4.60;4.30;;;;;;;24.70;46.75;98171.03;5033447;28;20190;-58
2021/09/10 01:34:52;;;;;;;4.43;4.13;;;;;;;24.71;46.75;98170.00;5033332;28;20220;-58
2021/09/10 01:37:18;;;;;;;4.20;3.90;;;;;;;24.74;46.84;98169.56;5033142;28;20277;-58
2021/09/10 01:39:45;;;;;;;4.57;4.17;;;;;;;24.72;46.58;98169.78;5033213;28;20707;-58
2021/09/10 01:42:11;;;;;;;4.33;4.03;;;;;;;24.74;46.80;98164.25;5033071;28;20553;-59
2021/09/10 01:44:38;;;;;;;4.20;3.90;;;;;;;24.70;46.91;98174.50;5033114;28;20194;-56
2021/09/10 01:47:04;;;;;;;4.33;4.03;;;;;;;24.72;46.70;98168.97;5033067;28;20547;-58
2021/09/10 01:49:31;;;;;;;4.10;3.80;;;;;;;24.71;46.81;98173.47;5033009;28;20212;-58
2021/09/10 01:51:57;;;;;;;3.90;3.70;;;;;;;24.71;46.68;98168.13;5033011;28;20196;-58
2021/09/10 01:54:26;;;;;;;4.63;4.30;;;;;;;24.74;46.75;98170.38;5032998;28;20248;-58
2021/09/10 01:56:52;;;;;;;4.47;4.17;;;;;;;24.75;46.57;98169.34;5032974;28;20198;-58
2021/09/10 01:59:19;;;;;;;4.07;3.77;;;;;;;24.75;46.57;98172.03;5032882;28;20217;-56
2021/09/10 02:01:45;;;;;;;4.50;4.20;;;;;;;24.75;46.67;98168.53;5034299;28;20190;-58
2021/09/10 02:04:12;;;;;;;4.80;4.50;;;;;;;24.75;46.57;98163.22;5037014;28;20256;-58
2021/09/10 02:06:39;;;;;;;4.50;4.10;;;;;;;24.74;46.61;98164.25;5036960;28;20190;-58
2021/09/10 02:09:05;;;;;;;4.77;4.37;;;;;;;24.74;46.76;98164.25;5036772;28;20216;-58
2021/09/10 02:11:32;;;;;;;4.13;3.90;;;;;;;24.72;46.57;98171.63;5037098;28;20189;-58
2021/09/10 02:13:58;;;;;;;4.70;4.30;;;;;;;24.69;46.96;98161.34;5036793;28;20186;-57
2021/09/10 02:16:25;;;;;;;4.43;4.13;;;;;;;24.67;46.87;98162.38;5036742;28;20190;-56
2021/09/10 02:18:52;;;;;;;4.67;4.37;;;;;;;24.68;46.65;98163.22;5036578;28;20562;-58
2021/09/10 02:21:19;;;;;;;4.33;4.03;;;;;;;24.69;46.89;98161.34;5036670;28;20656;-58
2021/09/10 02:23:45;;;;;;;4.27;3.97;;;;;;;24.69;46.89;98166.69;5036643;28;20190;-58
2021/09/10 02:26:12;;;;;;;4.40;4.03;;;;;;;24.69;46.84;98164.88;5036796;28;20609;-58
2021/09/10 02:28:38;;;;;;;4.20;3.90;;;;;;;24.70;46.72;98160.34;5036319;28;20209;-58
2021/09/10 02:31:05;;;;;;;4.40;4.00;;;;;;;24.70;46.73;98168.38;5036474;28;20193;-58
2021/09/10 02:33:32;;;;;;;4.50;4.20;;;;;;;24.66;46.68;98166.09;5036465;28;20214;-58
2021/09/10 02:36:00;;;;;;;4.37;4.07;;;;;;;24.65;46.86;98163.66;5036370;28;20668;-57
2021/09/10 02:38:27;;;;;;;4.30;4.00;;;;;;;24.65;46.72;98160.97;5036846;28;20218;-58
2021/09/10 02:40:53;;;;;;;4.60;4.30;;;;;;;24.68;46.73;98171.22;5036846;28;20198;-58
2021/09/10 02:43:20;;;;;;;4.00;3.80;;;;;;;24.68;46.66;98165.88;5036688;28;20185;-58
2021/09/10 02:45:47;;;;;;;4.40;4.10;;;;;;;24.65;46.62;98164.44;5036175;28;20204;-58
2021/09/10 02:48:14;;;;;;;4.47;4.17;;;;;;;24.72;46.68;98166.31;5036359;28;20201;-58
2021/09/10 02:50:41;;;;;;;4.20;3.90;;;;;;;24.70;46.69;98165.69;5036116;28;20186;-59
2021/09/10 02:53:09;;;;;;;4.63;4.33;;;;;;;24.61;46.76;98163.22;5036617;28;20197;-58
2021/09/10 02:55:36;;;;;;;4.37;4.07;;;;;;;24.63;46.72;98160.38;5036036;28;20661;-58
2021/09/10 02:58:03;;;;;;;4.40;4.10;;;;;;;24.62;46.74;98167.53;5034556;28;20289;-59
2021/09/10 03:00:31;;;;;;;4.40;4.10;;;;;;;24.62;46.73;98164.06;5035935;28;20186;-58
2021/09/10 03:02:58;;;;;;;4.47;4.17;;;;;;;24.64;46.75;98162.81;5036197;28;20209;-59
2021/09/10 03:05:25;;;;;;;4.13;3.83;;;;;;;24.68;46.54;98160.56;5034633;28;20205;-58
2021/09/10 03:07:52;;;;;;;4.60;4.30;;;;;;;24.70;46.61;98160.34;5035753;28;20190;-59
2021/09/10 03:10:18;;;;;;;3.90;3.70;;;;;;;24.71;46.42;98154.00;5035725;28;20193;-58
2021/09/10 03:12:45;;;;;;;4.53;4.23;;;;;;;24.73;46.42;98152.72;5035185;28;20199;-58
2021/09/10 03:15:13;;;;;;;4.53;4.23;;;;;;;24.69;46.77;98158.69;5035691;28;20187;-58
2021/09/10 03:17:40;;;;;;;4.53;4.23;;;;;;;24.65;46.75;98156.44;5035591;28;20656;-58
2021/09/10 03:20:07;;;;;;;4.67;4.37;;;;;;;24.62;46.56;98153.41;5035739;28;20214;-58
2021/09/10 03:22:34;;;;;;;4.77;4.37;;;;;;;24.61;46.60;98154.44;5035865;28;20649;-58
2021/09/10 03:25:01;;;;;;;4.50;4.20;;;;;;;24.63;46.72;98145.16;5036026;28;20190;-58
2021/09/10 03:27:28;;;;;;;4.97;4.67;;;;;;;24.63;46.78;98142.50;5035467;28;20196;-58
2021/09/10 03:29:55;;;;;;;4.47;4.17;;;;;;;24.64;46.72;98146.81;5034523;28;20206;-58
2021/09/10 03:32:22;;;;;;;4.70;4.40;;;;;;;24.60;46.74;98142.91;5034129;28;20228;-58
2021/09/10 03:34:49;;;;;;;4.67;4.37;;;;;;;24.63;46.72;98139.84;5035302;28;20669;-59
2021/09/10 03:37:16;;;;;;;4.57;4.27;;;;;;;24.63;46.76;98136.34;5035652;28;20276;-59
2021/09/10 03:39:42;;;;;;;4.50;4.20;;;;;;;24.63;46.54;98131.81;5035442;28;20218;-58
2021/09/10 03:42:09;;;;;;;4.50;4.20;;;;;;;24.61;46.56;98128.56;5035458;28;20194;-59
2021/09/10 03:44:35;;;;;;;4.30;4.00;;;;;;;24.58;46.61;98134.31;5035174;28;20599;-58
2021/09/10 03:47:05;;;;;;;4.40;4.10;;;;;;;24.60;46.63;98126.91;5035398;28;20190;-58
2021/09/10 03:49:33;;;;;;;4.40;4.10;;;;;;;24.59;46.86;98130.63;5033956;28;20206;-58
2021/09/10 03:52:01;;;;;;;4.63;4.17;;;;;;;24.62;46.72;98135.53;5035266;28;20554;-58
2021/09/10 03:54:27;;;;;;;4.90;4.50;;;;;;;24.60;46.57;98126.09;5034990;28;20205;-59
2021/09/10 03:56:54;;;;;;;4.67;4.37;;;;;;;24.57;46.70;98130.00;5035045;28;20196;-58
2021/09/10 03:59:20;;;;;;;4.47;4.17;;;;;;;24.56;46.78;98131.03;5034690;28;20263;-59
2021/09/10 04:01:47;;;;;;;4.20;3.90;;;;;;;24.57;46.95;98132.69;5034802;28;20194;-57
2021/09/10 04:04:15;;;;;;;4.70;4.40;;;;;;;24.56;46.92;98139.03;5034755;28;20193;-58
2021/09/10 04:06:41;;;;;;;4.17;3.90;;;;;;;24.59;46.70;98135.13;5033507;28;20201;-57
2021/09/10 04:09:08;;;;;;;4.10;3.80;;;;;;;24.61;46.54;98133.88;5034707;28;20198;-58
2021/09/10 04:11:37;;;;;;;4.63;4.33;;;;;;;24.60;46.57;98137.59;5034634;28;20209;-58
2021/09/10 04:14:04;;;;;;;4.00;3.70;;;;;;;24.59;46.55;98135.94;5033440;28;20186;-58
2021/09/10 04:16:33;;;;;;;4.23;3.93;;;;;;;24.61;46.77;98139.22;5034579;28;20213;-58
2021/09/10 04:19:00;;;;;;;4.60;4.30;;;;;;;24.61;46.79;98139.22;5034381;28;20217;-58
2021/09/10 04:21:27;;;;;;;4.60;4.30;;;;;;;24.58;46.58;98134.31;5034867;28;20561;-58
2021/09/10 04:23:54;;;;;;;5.13;4.73;;;;;;;24.63;46.60;98134.50;5034442;28;20186;-58
2021/09/10 04:26:20;;;;;;;5.10;4.70;;;;;;;24.61;46.52;98133.09;5034863;28;20252;-58
2021/09/10 04:28:47;;;;;;;4.47;4.17;;;;;;;24.56;46.70;98136.38;5034164;28;20221;-58
2021/09/10 04:31:14;;;;;;;4.70;4.40;;;;;;;24.55;46.78;98134.72;5034322;28;20656;-58
2021/09/10 04:33:41;;;;;;;4.33;4.03;;;;;;;24.56;46.77;98125.69;5034727;28;20190;-58
2021/09/10 04:36:07;;;;;;;4.53;4.23;;;;;;;24.56;46.73;98136.38;5034188;28;20596;-58
2021/09/10 04:38:34;;;;;;;4.43;4.13;;;;;;;24.57;46.78;98132.69;5033936;28;20209;-58
2021/09/10 04:41:01;;;;;;;4.57;4.27;;;;;;;24.55;46.62;98126.72;5034008;28;20186;-58
2021/09/10 04:43:27;;;;;;;4.53;4.20;;;;;;;24.56;46.62;98136.38;5034256;28;20198;-58
2021/09/10 04:45:54;;;;;;;4.53;4.23;;;;;;;24.54;46.72;98135.75;5033982;28;20236;-58
2021/09/10 04:48:21;;;;;;;4.43;4.13;;;;;;;24.54;46.83;98133.09;5033858;28;20210;-58
2021/09/10 04:50:47;;;;;;;4.57;4.27;;;;;;;24.54;46.72;98138.44;5033971;28;20252;-59
2021/09/10 04:53:14;;;;;;;4.53;4.23;;;;;;;24.51;46.81;98142.31;5034155;28;20247;-58
2021/09/10 04:55:41;;;;;;;4.37;4.07;;;;;;;24.52;46.79;98141.28;5033854;28;20640;-59
2021/09/10 04:58:07;;;;;;;4.53;4.23;;;;;;;24.50;46.73;98143.34;5033648;28;20198;-58
2021/09/10 05:00:34;;;;;;;4.70;4.40;;;;;;;24.52;46.76;98137.78;5033602;28;20206;-58
2021/09/10 05:03:00;;;;;;;4.53;4.13;;;;;;;24.50;46.77;98139.84;5033651;28;20194;-58
2021/09/10 05:05:27;;;;;;;4.60;4.30;;;;;;;24.50;46.67;98138.03;5033613;28;20194;-59
2021/09/10 05:07:54;;;;;;;4.70;4.40;;;;;;;24.56;46.53;98140.88;5033820;28;20182;-59
2021/09/10 05:10:21;;;;;;;4.73;4.43;;;;;;;24.58;46.63;98141.47;5034089;28;20663;-58
2021/09/10 05:12:47;;;;;;;4.77;4.40;;;;;;;24.59;46.64;98146.63;5032608;28;20243;-57
2021/09/10 05:15:14;;;;;;;5.20;4.80;;;;;;;24.59;46.43;98149.28;5033418;28;20193;-58
2021/09/10 05:17:41;;;;;;;4.70;4.40;;;;;;;24.58;46.64;98142.31;5033723;28;20549;-59
2021/09/10 05:20:08;;;;;;;5.30;4.90;;;;;;;24.57;46.48;98162.03;5033249;28;20684;-59
2021/09/10 05:22:37;;;;;;;4.40;4.10;;;;;;;24.60;46.59;98150.94;5033735;28;20190;-59
2021/09/10 05:25:07;;;;;;;4.90;4.60;;;;;;;24.58;46.48;98153.00;5033331;28;20186;-58
2021/09/10 05:27:34;;;;;;;4.97;4.60;;;;;;;24.57;46.58;98143.34;5033451;28;20202;-58
2021/09/10 05:30:00;;;;;;;4.30;4.10;;;;;;;24.58;46.57;98152.16;5033260;28;20201;-58
2021/09/10 05:32:27;;;;;;;4.97;4.57;;;;;;;24.58;46.47;98160.16;5033283;28;20186;-58
2021/09/10 05:34:53;;;;;;;4.90;4.60;;;;;;;24.57;46.70;98161.19;5033406;28;20247;-58
2021/09/10 05:37:20;;;;;;;4.73;4.43;;;;;;;24.52;46.61;98161.81;5033298;28;20652;-58
2021/09/10 05:39:46;;;;;;;4.70;4.40;;;;;;;24.50;46.80;98159.34;5032987;28;20210;-58
2021/09/10 05:42:13;;;;;;;4.60;4.30;;;;;;;24.48;46.71;98161.41;5033689;28;20198;-58
2021/09/10 05:44:40;;;;;;;4.80;4.50;;;;;;;24.48;46.89;98165.91;5033309;28;20190;-58
2021/09/10 05:47:06;;;;;;;4.60;4.30;;;;;;;24.49;46.81;98159.56;5033569;28;20197;-58
2021/09/10 05:49:33;;;;;;;4.77;4.47;;;;;;;24.50;46.86;98163.84;5033042;28;20281;-58
2021/09/10 05:51:59;;;;;;;4.63;4.33;;;;;;;24.54;46.65;98154.44;5032992;28;20186;-58
2021/09/10 05:54:26;;;;;;;5.00;4.70;;;;;;;24.59;46.28;98159.97;5033318;28;20549;-58
2021/09/10 05:56:52;;;;;;;4.60;4.30;;;;;;;24.56;46.49;98168.38;5033054;28;20553;-58
2021/09/10 05:59:18;;;;;;;4.80;4.50;;;;;;;24.56;46.43;98172.88;5031551;28;20241;-58
2021/09/10 06:01:45;;;;;;;5.33;4.93;;;;;;;24.57;46.44;98172.69;5033037;28;20189;-58
2021/09/10 06:04:12;;;;;;;4.77;4.47;;;;;;;24.57;46.37;98172.69;5032900;28;20190;-58
2021/09/10 06:06:38;;;;;;;4.90;4.50;;;;;;;24.57;46.42;98172.69;5031698;28;20200;-59
2021/09/10 06:09:05;;;;;;;5.10;4.80;;;;;;;24.61;46.42;98170.44;5032928;28;20210;-58
2021/09/10 06:11:31;;;;;;;5.10;4.70;;;;;;;24.60;46.50;98171.44;5033327;28;20196;-58
2021/09/10 06:13:59;;;;;;;4.47;4.17;;;;;;;24.61;46.25;98171.25;5032811;28;20193;-58
2021/09/10 06:16:26;;;;;;;4.40;4.10;;;;;;;24.64;46.35;98175.34;5032839;28;20194;-58
2021/09/10 06:18:53;;;;;;;4.37;4.07;;;;;;;24.61;46.46;98178.44;5032757;28;20304;-58
2021/09/10 06:21:19;;;;;;;4.17;3.87;;;;;;;24.61;46.44;98171.25;5032695;28;20221;-59
2021/09/10 06:23:46;;;;;;;4.77;4.47;;;;;;;24.60;46.68;98179.44;5032774;28;20252;-58
2021/09/10 06:26:15;;;;;;;4.47;4.17;;;;;;;24.61;46.60;98176.56;5032918;28;20597;-57
2021/09/10 06:28:42;;;;;;;5.07;4.67;;;;;;;24.67;46.49;98180.25;5031249;28;20625;-58
2021/09/10 06:31:09;;;;;;;5.63;5.00;;;;;;;24.63;46.72;98187.84;5032820;28;20186;-58
2021/09/10 06:33:35;;;;;;;4.83;4.53;;;;;;;24.64;46.61;98186.81;5032590;28;20194;-58
2021/09/10 06:36:02;;;;;;;4.20;3.90;;;;;;;24.65;46.43;98183.13;5032570;28;20186;-58
2021/09/10 06:38:28;;;;;;;4.93;4.43;;;;;;;24.70;46.61;98181.69;5033004;28;20206;-58
2021/09/10 06:40:55;;;;;;;5.00;4.60;;;;;;;24.73;46.50;98183.94;5031305;28;20202;-57
2021/09/10 06:43:21;;;;;;;4.67;4.37;;;;;;;24.76;46.67;98178.22;5032835;28;20190;-59
2021/09/10 06:45:48;;;;;;;5.07;4.67;;;;;;;24.74;46.67;98183.72;5032494;28;20229;-58
2021/09/10 06:48:15;;;;;;;4.70;4.40;;;;;;;24.73;46.80;98181.28;5031754;28;20210;-58
2021/09/10 06:50:42;;;;;;;4.43;4.00;;;;;;;24.74;46.73;98181.06;5036110;28;20657;-59
2021/09/10 06:53:08;;;;;;;4.47;4.17;;;;;;;24.72;46.71;98188.44;5036019;28;20194;-59
2021/09/10 06:55:35;;;;;;;4.80;4.13;;;;;;;24.74;46.95;98185.59;5035956;28;20190;-59
2021/09/10 06:58:02;;;;;;;4.20;3.83;;;;;;;24.73;46.82;98186.63;5035860;28;20190;-59
2021/09/10 07:00:29;;;;;;;9.80;3.97;;;;;;;24.76;46.93;98186.22;5035787;28;20264;-59
2021/09/10 07:02:55;;;;;;;10.13;4.63;;;;;;;24.78;46.97;98186.84;5035844;28;20182;-58
2021/09/10 07:05:22;;;;;;;6.17;4.23;;;;;;;24.77;46.85;98195.88;5035895;28;20708;-59
2021/09/10 07:07:49;;;;;;;4.67;4.30;;;;;;;24.76;47.01;98200.38;5035980;28;20593;-59
2021/09/10 07:10:18;;;;;;;5.30;4.70;;;;;;;24.73;47.08;98199.97;5035617;28;20236;-59
2021/09/10 07:12:45;;;;;;;5.37;4.13;;;;;;;24.71;47.11;98212.69;5035688;28;20190;-58
2021/09/10 07:15:11;;;;;;;4.83;4.30;;;;;;;24.72;47.06;98214.34;5036085;28;20194;-58
2021/09/10 07:17:38;;;;;;;4.97;4.57;;;;;;;24.73;46.76;98216.78;5035816;28;20190;-58
2021/09/10 07:20:05;;;;;;;5.37;4.50;;;;;;;24.77;46.79;98219.88;5035325;28;20210;-58
2021/09/10 07:22:32;;;;;;;5.43;4.87;;;;;;;24.75;47.13;98230.72;5035539;28;20249;-58
2021/09/10 07:24:58;;;;;;;4.73;4.33;;;;;;;24.76;46.95;98231.59;5035442;28;20236;-59
2021/09/10 07:27:25;;;;;;;5.20;4.80;;;;;;;24.76;47.15;98234.25;5034113;28;20244;-58
2021/09/10 07:29:51;;;;;;;4.47;4.03;;;;;;;24.78;47.12;98234.88;5035319;28;20210;-59
2021/09/10 07:32:18;;;;;;;5.50;4.47;;;;;;;24.76;47.09;98237.72;5035489;28;20198;-59
2021/09/10 07:34:44;;;;;;;4.87;4.43;;;;;;;24.74;47.08;98239.75;5035569;28;20661;-58
2021/09/10 07:37:11;;;;;;;4.90;4.50;;;;;;;24.74;47.17;98244.28;5035401;28;20258;-59
2021/09/10 07:39:37;;;;;;;4.50;4.13;;;;;;;24.72;47.24;98241.00;5033827;28;20221;-59
2021/09/10 07:42:04;;;;;;;5.03;4.73;;;;;;;24.69;47.30;98246.75;5035048;28;20723;-60
2021/09/10 07:44:30;;;;;;;4.90;4.57;;;;;;;24.70;47.10;98243.06;5035044;28;20186;-58
2021/09/10 07:46:57;;;;;;;4.80;4.40;;;;;;;24.69;47.12;98244.91;5035271;28;20194;-57
2021/09/10 07:49:24;;;;;;;4.93;4.53;;;;;;;24.71;47.09;98250.03;5033818;28;20242;-58
2021/09/10 07:51:51;;;;;;;4.70;4.40;;;;;;;24.72;47.29;98249.81;5035376;28;20186;-58
2021/09/10 07:54:18;;;;;;;4.57;4.27;;;;;;;24.73;47.03;98258.66;5033760;28;20186;-57
2021/09/10 07:56:44;;;;;;;4.77;4.40;;;;;;;24.75;47.24;98251.28;5034849;28;20194;-58
2021/09/10 07:59:11;;;;;;;4.97;4.50;;;;;;;24.78;46.95;98264.22;5034362;28;20210;-58
2021/09/10 08:01:37;;;;;;;4.63;4.33;;;;;;;24.80;46.96;98260.31;5034662;28;20621;-58
2021/09/10 08:04:04;;;;;;;4.83;4.53;;;;;;;24.81;46.93;98261.13;5034928;28;20553;-58
2021/09/10 08:06:33;;;;;;;4.73;4.33;;;;;;;24.82;46.93;98261.97;5034650;28;20190;-57
2021/09/10 08:09:00;;;;;;;5.00;4.53;;;;;;;24.83;46.93;98264.41;5033566;28;20213;-57
2021/09/10 08:11:29;;;;;;;5.00;4.60;;;;;;;24.84;47.04;98265.25;5034649;28;20281;-57
2021/09/10 08:13:57;;;;;;;4.70;4.40;;;;;;;24.82;46.84;98262.78;5034478;28;20190;-58
2021/09/10 08:16:24;;;;;;;5.00;4.60;;;;;;;24.83;47.08;98272.41;5035082;28;20213;-58
2021/09/10 08:18:51;;;;;;;5.33;4.93;;;;;;;24.85;46.91;98262.38;5034365;28;20712;-57
2021/09/10 08:21:37;;;;;;;4.60;4.30;;;;;;;24.84;46.94;98270.59;5034594;28;20194;-58
2021/09/10 08:24:05;;;;;;;4.13;3.80;;;;;;;24.80;47.21;98275.50;5034263;28;20194;-57
2021/09/10 08:26:32;;;;;;;4.90;4.60;;;;;;;24.82;46.95;98268.09;5033270;28;20194;-58
2021/09/10 08:28:58;;;;;;;4.90;4.50;;;;;;;24.80;47.25;98273.66;5034073;28;20221;-59
2021/09/10 08:31:25;;;;;;;4.70;4.30;;;;;;;24.83;47.16;98275.09;5034401;28;20197;-58
2021/09/10 08:33:51;;;;;;;4.80;4.50;;;;;;;24.90;46.83;98277.75;5034047;28;20190;-59
2021/09/10 08:36:18;;;;;;;4.37;4.00;;;;;;;24.91;46.82;98280.22;5034015;28;20245;-58
2021/09/10 08:38:45;;;;;;;4.40;4.00;;;;;;;24.93;46.89;98275.50;5033843;28;20248;-58
2021/09/10 08:41:13;;;;;;;4.83;4.43;;;;;;;24.93;46.81;98285.38;5033918;28;20209;-59
2021/09/10 08:43:47;;;;;;;4.53;4.23;;;;;;;24.97;46.90;98285.75;5033886;28;20190;-59
2021/09/10 08:46:14;;;;;;;4.93;4.53;;;;;;;24.97;46.85;98289.25;5032702;28;20201;-58
2021/09/10 08:48:45;;;;;;;5.43;4.03;;;;;;;24.98;46.90;98290.06;5033881;28;20645;-59
2021/09/10 08:51:14;;;;;;;4.50;4.10;;;;;;;24.97;46.93;98294.59;5033793;28;20269;-59
2021/09/10 08:53:40;;;;;;;4.50;4.20;;;;;;;24.98;46.86;98287.38;5033708;28;20657;-59
2021/09/10 08:56:07;;;;;;;4.87;4.47;;;;;;;24.97;46.75;98296.44;5032602;28;20197;-59
2021/09/10 08:58:33;;;;;;;4.97;4.57;;;;;;;25.01;46.51;98286.97;5034102;28;20202;-59
2021/09/10 09:01:02;;;;;;;4.57;4.17;;;;;;;25.01;46.54;98287.81;5033855;28;20248;-59
2021/09/10 09:03:30;;;;;;;4.60;4.30;;;;;;;25.01;46.51;98286.97;5033864;28;20201;-59
2021/09/10 09:05:58;;;;;;;4.23;3.83;;;;;;;25.00;46.62;98286.16;5033589;28;20186;-58
2021/09/10 09:08:26;;;;;;;4.63;4.23;;;;;;;24.92;46.77;98287.19;5033331;28;20214;-58
2021/09/10 09:10:53;;;;;;;4.70;4.40;;;;;;;24.91;46.94;98293.56;5032877;28;20268;-59
2021/09/10 09:13:20;;;;;;;4.23;3.93;;;;;;;24.91;47.01;98282.91;5033337;28;20193;-58
2021/09/10 09:15:47;;;;;;;4.73;4.40;;;;;;;24.90;47.05;98291.94;5033659;28;20194;-59
2021/09/10 09:18:14;;;;;;;4.50;4.20;;;;;;;24.91;46.82;98290.91;5033300;28;20300;-58
2021/09/10 09:20:47;;;;;;;4.30;3.90;;;;;;;24.91;47.08;98282.91;5033200;28;20214;-58
2021/09/10 09:23:14;;;;;;;4.40;4.10;;;;;;;24.92;46.86;98289.88;5033637;28;20178;-59
2021/09/10 09:25:44;;;;;;;4.53;4.17;;;;;;;24.93;46.81;98285.38;5033391;28;20248;-58
2021/09/10 09:28:17;;;;;;;4.47;4.07;;;;;;;24.91;47.00;98282.91;5033082;28;20252;-58
2021/09/10 09:30:44;;;;;;;4.50;4.20;;;;;;;24.89;46.90;98276.94;5033399;28;20240;-57
2021/09/10 09:33:14;;;;;;;4.37;4.07;;;;;;;24.85;47.09;98281.06;5033535;28;20205;-57
2021/09/10 09:35:42;;;;;;;4.67;4.37;;;;;;;24.85;47.02;98278.41;5033405;28;20216;-57
2021/09/10 09:38:25;;;;;;;4.17;3.87;;;;;;;24.85;47.20;98275.72;5033623;28;20194;-55
2021/09/10 09:41:03;;;;;;;4.27;3.97;;;;;;;24.86;47.28;98274.69;5033684;28;20660;-57
2021/09/10 09:43:35;;;;;;;4.00;3.70;;;;;;;24.88;46.98;98275.31;5033150;28;20178;-57
2021/09/10 09:46:07;;;;;;;4.30;3.93;;;;;;;24.86;47.25;98274.69;5033427;28;20186;-57
2021/09/10 09:48:38;;;;;;;3.80;3.60;;;;;;;24.84;46.98;98273.25;5033399;28;20216;-55
2021/09/10 09:51:05;;;;;;;4.20;3.90;;;;;;;24.84;47.04;98276.72;5033137;28;20691;-57
2021/09/10 09:53:35;;;;;;;3.90;3.60;;;;;;;24.86;46.91;98274.69;5033117;28;20277;-57
2021/09/10 09:56:03;;;;;;;4.60;4.20;;;;;;;24.88;46.86;98277.97;5033863;28;20273;-57
2021/09/10 09:58:30;;;;;;;3.67;3.43;;;;;;;24.86;47.19;98273.88;5032976;28;20570;-57
2021/09/10 10:00:59;;;;;;;4.30;4.00;;;;;;;24.84;46.88;98276.72;5033266;28;20259;-59
2021/09/10 10:03:26;;;;;;;4.77;4.47;;;;;;;24.86;47.13;98277.38;5031783;28;20198;-58
2021/09/10 10:06:04;;;;;;;4.30;3.90;;;;;;;24.87;47.02;98276.34;5033065;28;20236;-58
2021/09/10 10:08:54;;;;;;;5.10;4.70;;;;;;;24.93;47.11;98278.16;5033554;28;20217;-58
2021/09/10 10:11:29;;;;;;;4.63;4.33;;;;;;;24.98;46.85;98266.03;5033558;28;20257;-58
2021/09/10 10:13:59;;;;;;;4.70;4.40;;;;;;;25.04;46.85;98281.25;5033182;28;20173;-58
2021/09/10 10:16:37;;;;;;;5.37;4.97;;;;;;;25.10;46.97;98275.06;5032916;28;20190;-58
2021/09/10 10:19:08;;;;;;;4.33;4.03;;;;;;;25.18;46.94;98264.16;5033142;28;20248;-58
2021/09/10 10:21:55;;;;;;;5.23;4.83;;;;;;;25.23;46.60;98269.69;5033168;28;20201;-58
2021/09/10 10:24:43;;;;;;;4.87;4.57;;;;;;;25.27;46.58;98269.25;5035904;28;20529;-58
2021/09/10 10:27:37;;;;;;;5.63;5.13;;;;;;;25.26;46.61;98265.78;5037111;28;20661;-59
2021/09/10 10:30:18;;;;;;;5.77;5.37;;;;;;;25.29;46.87;98262.69;5035600;28;20214;-58
2021/09/10 10:32:49;;;;;;;5.63;5.23;;;;;;;25.33;46.56;98261.22;5037198;28;20189;-58
2021/09/10 10:35:40;;;;;;;5.63;5.13;;;;;;;25.35;46.86;98266.38;5036775;28;20182;-58
2021/09/10 10:38:09;;;;;;;6.67;6.17;;;;;;;25.36;46.79;98268.81;5036974;28;20504;-58
2021/09/10 10:40:39;;;;;;;5.73;5.33;;;;;;;25.41;46.60;98268.19;5036702;28;20544;-58
2021/09/10 10:43:07;;;;;;;5.40;5.00;;;;;;;25.41;46.50;98278.03;5036637;28;20194;-58
2021/09/10 10:45:44;;;;;;;6.40;5.90;;;;;;;25.38;46.88;98280.09;5036278;28;20186;-57
2021/09/10 10:48:29;;;;;;;7.53;6.93;;;;;;;25.35;46.63;98275.19;5036134;28;20248;-58
2021/09/10 10:51:02;;;;;;;7.97;7.27;;;;;;;25.34;47.01;98270.88;5036223;28;20538;-58
2021/09/10 10:53:54;;;;;;;8.07;7.37;;;;;;;25.31;47.26;98270.47;5036695;28;20621;-57
2021/09/10 10:56:23;;;;;;;8.23;7.43;;;;;;;25.28;47.38;98276.25;5034814;28;20664;-57
2021/09/10 10:59:22;;;;;;;8.60;8.00;;;;;;;25.23;47.53;98266.19;5035915;28;20234;-58
2021/09/10 11:02:17;;;;;;;9.20;8.40;;;;;;;25.19;47.77;98260.47;5035887;28;20684;-56
2021/09/10 11:04:45;;;;;;;9.57;8.77;;;;;;;25.20;47.71;98259.44;5036314;28;20241;-57
2021/09/10 11:07:12;;;;;;;9.67;8.83;;;;;;;25.26;47.69;98256.94;5034996;28;20240;-57
2021/09/10 11:09:39;;;;;;;9.03;8.20;;;;;;;25.25;47.80;98255.31;5034506;28;20637;-58
2021/09/10 11:12:05;;;;;;;8.83;8.07;;;;;;;25.22;48.23;98257.38;5035854;28;20597;-58
2021/09/10 11:14:34;;;;;;;8.30;7.67;;;;;;;25.19;48.07;98249.78;5035749;28;20315;-57
2021/09/10 11:17:14;;;;;;;8.47;7.77;;;;;;;25.16;48.03;98244.84;5035685;28;20252;-56
2021/09/10 11:19:45;;;;;;;8.83;8.13;;;;;;;25.21;48.02;98247.72;5035696;28;20209;-57
2021/09/10 11:22:12;;;;;;;8.80;8.03;;;;;;;25.28;47.88;98249.53;5035524;28;20267;-59
2021/09/10 11:24:38;;;;;;;8.83;8.00;;;;;;;25.38;47.80;98245.38;5036065;28;20194;-61
2021/09/10 11:27:26;;;;;;;9.63;8.70;;;;;;;25.48;47.83;98258.31;5035408;28;20194;-60
2021/09/10 11:29:53;;;;;;;9.47;8.67;;;;;;;25.56;47.70;98251.91;5035738;28;20221;-57
2021/09/10 11:32:25;;;;;;;9.27;8.30;;;;;;;25.62;47.68;98250.25;5035462;28;20668;-57
2021/09/10 11:34:53;;;;;;;8.27;7.67;;;;;;;25.67;47.75;98245.09;5035024;28;20633;-59
2021/09/10 11:37:32;;;;;;;8.40;7.60;;;;;;;25.70;47.94;98235.81;5035563;28;20766;-62
2021/09/10 11:40:00;;;;;;;8.50;7.70;;;;;;;25.72;47.91;98242.59;5035537;28;20214;-57